sensor_id;sensor_type;location;lat;lon;timestamp;pressure;altitude;pressure_sealevel;temperature;humidity
21547;BME280;41275;51.912;4.388;2023-07-13T00:04:33;101344.50;;;24.71;47.75
21547;BME280;41275;51.912;4.388;2023-07-13T00:09:54;101345.78;;;24.73;47.43
21547;BME280;41275;51.912;4.388;2023-07-13T00:15:26;101357.63;;;24.86;47.32
21547;BME280;41275;51.912;4.388;2023-07-13T00:20:47;101347.13;;;24.85;47.42
21547;BME280;41275;51.912;4.388;2023-07-13T00:26:10;101352.03;;;24.83;47.16
21547;BME280;41275;51.912;4.388;2023-07-13T00:31:31;101350.84;;;24.66;47.75
21547;BME280;41275;51.912;4.388;2023-07-13T00:36:53;101355.81;;;24.51;48.07
21547;BME280;41275;51.912;4.388;2023-07-13T00:42:14;101350.16;;;24.38;48.47
21547;BME280;41275;51.912;4.388;2023-07-13T00:47:36;101348.56;;;24.23;49.30
21547;BME280;41275;51.912;4.388;2023-07-13T00:52:57;101348.00;;;24.13;49.23
21547;BME280;41275;51.912;4.388;2023-07-13T00:58:19;101349.53;;;24.05;49.70
21547;BME280;41275;51.912;4.388;2023-07-13T01:03:40;101352.94;;;23.97;49.74
21547;BME280;41275;51.912;4.388;2023-07-13T01:09:02;101362.75;;;23.93;49.35
21547;BME280;41275;51.912;4.388;2023-07-13T01:14:23;101357.28;;;23.84;49.38
21547;BME280;41275;51.912;4.388;2023-07-13T01:19:45;101363.91;;;23.78;49.06
21547;BME280;41275;51.912;4.388;2023-07-13T01:25:06;101377.41;;;23.78;48.68
21547;BME280;41275;51.912;4.388;2023-07-13T01:30:29;101369.59;;;23.76;48.06
21547;BME280;41275;51.912;4.388;2023-07-13T01:35:50;101371.31;;;23.72;47.03
21547;BME280;41275;51.912;4.388;2023-07-13T01:41:11;101372.91;;;23.73;46.68
21547;BME280;41275;51.912;4.388;2023-07-13T01:46:33;101378.41;;;23.68;46.29
21547;BME280;41275;51.912;4.388;2023-07-13T01:51:54;101373.00;;;23.68;46.47
21547;BME280;41275;51.912;4.388;2023-07-13T01:57:15;101376.03;;;23.67;47.30
21547;BME280;41275;51.912;4.388;2023-07-13T02:02:37;101381.91;;;23.69;47.54
21547;BME280;41275;51.912;4.388;2023-07-13T02:07:58;101383.81;;;23.68;48.06
21547;BME280;41275;51.912;4.388;2023-07-13T02:13:19;101384.69;;;23.64;48.54
21547;BME280;41275;51.912;4.388;2023-07-13T02:18:41;101389.09;;;23.60;49.18
21547;BME280;41275;51.912;4.388;2023-07-13T02:24:02;101379.09;;;23.60;49.94
21547;BME280;41275;51.912;4.388;2023-07-13T02:29:25;101375.00;;;23.63;50.31
21547;BME280;41275;51.912;4.388;2023-07-13T02:34:46;101373.69;;;23.60;50.80
21547;BME280;41275;51.912;4.388;2023-07-13T02:40:08;101380.78;;;23.56;51.04
21547;BME280;41275;51.912;4.388;2023-07-13T02:45:29;101378.78;;;23.62;51.25
21547;BME280;41275;51.912;4.388;2023-07-13T02:50:50;101389.53;;;23.67;51.31
21547;BME280;41275;51.912;4.388;2023-07-13T02:56:12;101382.53;;;23.66;51.64
21547;BME280;41275;51.912;4.388;2023-07-13T03:01:33;101383.34;;;23.66;51.83
21547;BME280;41275;51.912;4.388;2023-07-13T03:06:56;101392.47;;;23.65;51.77
21547;BME280;41275;51.912;4.388;2023-07-13T03:12:18;101391.69;;;23.65;52.20
21547;BME280;41275;51.912;4.388;2023-07-13T03:17:40;101387.03;;;23.70;52.11
21547;BME280;41275;51.912;4.388;2023-07-13T03:23:01;101388.59;;;23.85;52.40
21547;BME280;41275;51.912;4.388;2023-07-13T03:28:24;101387.00;;;23.98;52.04
21547;BME280;41275;51.912;4.388;2023-07-13T03:33:45;101400.22;;;23.99;52.20
21547;BME280;41275;51.912;4.388;2023-07-13T03:39:07;101389.06;;;24.15;52.10
21547;BME280;41275;51.912;4.388;2023-07-13T03:44:29;101399.66;;;24.25;52.02
21547;BME280;41275;51.912;4.388;2023-07-13T03:49:50;101403.38;;;24.29;51.86
21547;BME280;41275;51.912;4.388;2023-07-13T03:55:11;101397.66;;;24.17;51.91
21547;BME280;41275;51.912;4.388;2023-07-13T04:00:33;101413.41;;;24.15;51.86
21547;BME280;41275;51.912;4.388;2023-07-13T04:05:55;101409.00;;;24.19;51.71
21547;BME280;41275;51.912;4.388;2023-07-13T04:11:22;101405.09;;;24.25;51.59
21547;BME280;41275;51.912;4.388;2023-07-13T04:16:44;101422.66;;;24.36;51.36
21547;BME280;41275;51.912;4.388;2023-07-13T04:22:06;101420.28;;;24.48;50.96
21547;BME280;41275;51.912;4.388;2023-07-13T04:27:27;101422.59;;;24.64;50.48
21547;BME280;41275;51.912;4.388;2023-07-13T04:32:51;101426.66;;;24.75;50.07
21547;BME280;41275;51.912;4.388;2023-07-13T04:38:13;101424.09;;;24.92;49.56
21547;BME280;41275;51.912;4.388;2023-07-13T04:43:36;101430.22;;;25.07;48.63
21547;BME280;41275;51.912;4.388;2023-07-13T04:48:57;101436.28;;;25.04;48.70
21547;BME280;41275;51.912;4.388;2023-07-13T04:54:19;101441.56;;;25.09;48.31
21547;BME280;41275;51.912;4.388;2023-07-13T04:59:40;101456.22;;;25.08;48.16
21547;BME280;41275;51.912;4.388;2023-07-13T05:05:02;101449.91;;;25.12;48.44
21547;BME280;41275;51.912;4.388;2023-07-13T05:10:24;101458.03;;;25.12;48.39
21547;BME280;41275;51.912;4.388;2023-07-13T05:15:47;101460.66;;;25.04;48.91
21547;BME280;41275;51.912;4.388;2023-07-13T05:21:15;101459.81;;;25.03;49.38
21547;BME280;41275;51.912;4.388;2023-07-13T05:26:37;101466.06;;;25.26;49.60
21547;BME280;41275;51.912;4.388;2023-07-13T05:31:58;101473.78;;;25.41;49.42
21547;BME280;41275;51.912;4.388;2023-07-13T05:37:19;101483.81;;;25.10;49.22
21547;BME280;41275;51.912;4.388;2023-07-13T05:42:40;101483.50;;;24.53;50.17
21547;BME280;41275;51.912;4.388;2023-07-13T05:48:02;101488.09;;;24.24;50.95
21547;BME280;41275;51.912;4.388;2023-07-13T05:53:23;101486.69;;;24.27;51.15
21547;BME280;41275;51.912;4.388;2023-07-13T05:58:44;101497.81;;;24.39;51.03
21547;BME280;41275;51.912;4.388;2023-07-13T06:04:06;101505.13;;;24.53;50.67
21547;BME280;41275;51.912;4.388;2023-07-13T06:09:27;101511.03;;;24.55;50.59
21547;BME280;41275;51.912;4.388;2023-07-13T06:14:48;101510.44;;;24.44;50.87
21547;BME280;41275;51.912;4.388;2023-07-13T06:20:09;101510.72;;;24.29;50.82
21547;BME280;41275;51.912;4.388;2023-07-13T06:25:31;101505.50;;;24.32;50.77
21547;BME280;41275;51.912;4.388;2023-07-13T06:30:52;101517.88;;;24.11;51.15
21547;BME280;41275;51.912;4.388;2023-07-13T06:36:13;101516.13;;;24.29;51.02
21547;BME280;41275;51.912;4.388;2023-07-13T06:41:34;101533.50;;;24.41;51.05
21547;BME280;41275;51.912;4.388;2023-07-13T06:46:56;101534.38;;;24.51;50.72
21547;BME280;41275;51.912;4.388;2023-07-13T06:52:17;101528.44;;;24.76;50.73
21547;BME280;41275;51.912;4.388;2023-07-13T06:57:38;101539.47;;;25.16;50.28
21547;BME280;41275;51.912;4.388;2023-07-13T07:02:59;101544.00;;;25.52;49.27
21547;BME280;41275;51.912;4.388;2023-07-13T07:08:20;101560.81;;;25.62;48.29
21547;BME280;41275;51.912;4.388;2023-07-13T07:13:42;101555.25;;;25.22;48.40
21547;BME280;41275;51.912;4.388;2023-07-13T07:19:03;101567.94;;;25.13;47.66
21547;BME280;41275;51.912;4.388;2023-07-13T07:24:24;101573.25;;;25.18;47.22
21547;BME280;41275;51.912;4.388;2023-07-13T07:29:45;101566.03;;;25.14;46.33
21547;BME280;41275;51.912;4.388;2023-07-13T07:35:07;101573.41;;;25.00;46.66
21547;BME280;41275;51.912;4.388;2023-07-13T07:40:28;101579.78;;;25.40;46.79
21547;BME280;41275;51.912;4.388;2023-07-13T07:45:50;101576.56;;;25.83;46.65
21547;BME280;41275;51.912;4.388;2023-07-13T07:51:11;101587.91;;;26.25;46.11
21547;BME280;41275;51.912;4.388;2023-07-13T07:56:32;101589.38;;;26.31;45.54
21547;BME280;41275;51.912;4.388;2023-07-13T08:01:54;101602.72;;;25.79;44.87
21547;BME280;41275;51.912;4.388;2023-07-13T08:07:15;101582.44;;;26.07;44.79
21547;BME280;41275;51.912;4.388;2023-07-13T08:12:37;101593.03;;;26.26;44.95
21547;BME280;41275;51.912;4.388;2023-07-13T08:17:59;101593.78;;;26.49;45.24
21547;BME280;41275;51.912;4.388;2023-07-13T08:23:20;101586.84;;;27.09;44.08
21547;BME280;41275;51.912;4.388;2023-07-13T08:28:41;101595.56;;;26.62;43.59
21547;BME280;41275;51.912;4.388;2023-07-13T08:34:03;101594.97;;;25.50;45.20
21547;BME280;41275;51.912;4.388;2023-07-13T08:39:24;101594.94;;;25.63;46.13
21547;BME280;41275;51.912;4.388;2023-07-13T08:50:33;101608.56;;;26.34;44.26
21547;BME280;41275;51.912;4.388;2023-07-13T08:55:58;101606.19;;;24.02;48.47
21547;BME280;41275;51.912;4.388;2023-07-13T09:01:29;101623.66;;;23.20;52.09
21547;BME280;41275;51.912;4.388;2023-07-13T09:06:58;101628.84;;;22.73;53.77
21547;BME280;41275;51.912;4.388;2023-07-13T09:18:26;101635.53;;;22.28;55.24
21547;BME280;41275;51.912;4.388;2023-07-13T09:23:46;101624.09;;;23.08;55.48
21547;BME280;41275;51.912;4.388;2023-07-13T09:29:14;101632.22;;;23.97;54.80
21547;BME280;41275;51.912;4.388;2023-07-13T09:34:37;101621.28;;;24.49;54.10
21547;BME280;41275;51.912;4.388;2023-07-13T09:40:01;101624.56;;;24.60;53.88
21547;BME280;41275;51.912;4.388;2023-07-13T09:45:30;101632.09;;;24.63;52.84
21547;BME280;41275;51.912;4.388;2023-07-13T09:50:55;101646.88;;;24.24;52.16
21547;BME280;41275;51.912;4.388;2023-07-13T09:56:27;101657.91;;;23.43;53.42
21547;BME280;41275;51.912;4.388;2023-07-13T10:01:49;101648.06;;;23.85;53.40
21547;BME280;41275;51.912;4.388;2023-07-13T10:07:12;101660.16;;;24.67;52.49
21547;BME280;41275;51.912;4.388;2023-07-13T10:12:36;101670.72;;;25.32;51.53
21547;BME280;41275;51.912;4.388;2023-07-13T10:17:58;101676.00;;;25.96;49.88
21547;BME280;41275;51.912;4.388;2023-07-13T10:23:22;101680.19;;;26.64;47.03
21547;BME280;41275;51.912;4.388;2023-07-13T10:28:52;101676.75;;;26.90;44.22
21547;BME280;41275;51.912;4.388;2023-07-13T10:34:14;101675.06;;;27.55;42.97
21547;BME280;41275;51.912;4.388;2023-07-13T10:39:35;101691.25;;;27.34;42.30
21547;BME280;41275;51.912;4.388;2023-07-13T10:44:58;101683.25;;;27.37;41.80
21547;BME280;41275;51.912;4.388;2023-07-13T10:50:24;101684.69;;;27.52;40.43
21547;BME280;41275;51.912;4.388;2023-07-13T11:01:16;101715.06;;;27.54;39.80
21547;BME280;41275;51.912;4.388;2023-07-13T11:06:40;101700.50;;;27.33;39.52
21547;BME280;41275;51.912;4.388;2023-07-13T11:17:35;101706.25;;;27.66;39.09
21547;BME280;41275;51.912;4.388;2023-07-13T11:23:09;101708.34;;;27.34;38.57
21547;BME280;41275;51.912;4.388;2023-07-13T11:28:31;101698.13;;;27.57;38.33
21547;BME280;41275;51.912;4.388;2023-07-13T11:33:56;101705.81;;;27.55;37.73
21547;BME280;41275;51.912;4.388;2023-07-13T11:39:31;101708.84;;;27.45;37.50
21547;BME280;41275;51.912;4.388;2023-07-13T11:44:53;101700.69;;;27.80;37.20
21547;BME280;41275;51.912;4.388;2023-07-13T11:50:22;101716.00;;;28.10;37.81
21547;BME280;41275;51.912;4.388;2023-07-13T11:55:44;101718.22;;;28.17;36.77
21547;BME280;41275;51.912;4.388;2023-07-13T12:01:06;101711.16;;;28.42;36.41
21547;BME280;41275;51.912;4.388;2023-07-13T12:06:34;101718.44;;;28.03;37.02
21547;BME280;41275;51.912;4.388;2023-07-13T12:12:00;101710.66;;;28.31;35.73
21547;BME280;41275;51.912;4.388;2023-07-13T12:17:23;101710.06;;;28.17;36.11
21547;BME280;41275;51.912;4.388;2023-07-13T12:22:46;101712.78;;;28.17;36.74
21547;BME280;41275;51.912;4.388;2023-07-13T12:28:22;101718.03;;;28.31;36.25
21547;BME280;41275;51.912;4.388;2023-07-13T12:33:44;101717.09;;;29.03;35.78
21547;BME280;41275;51.912;4.388;2023-07-13T12:39:15;101718.59;;;29.22;34.57
21547;BME280;41275;51.912;4.388;2023-07-13T12:44:40;101703.19;;;30.01;33.85
21547;BME280;41275;51.912;4.388;2023-07-13T12:50:03;101707.84;;;30.46;32.32
21547;BME280;41275;51.912;4.388;2023-07-13T12:55:27;101706.53;;;31.29;31.14
21547;BME280;41275;51.912;4.388;2023-07-13T13:00:51;101717.38;;;31.25;31.16
21547;BME280;41275;51.912;4.388;2023-07-13T13:11:42;101726.22;;;31.47;29.93
21547;BME280;41275;51.912;4.388;2023-07-13T13:17:32;101728.72;;;31.40;28.97
21547;BME280;41275;51.912;4.388;2023-07-13T13:22:53;101730.25;;;31.37;28.42
21547;BME280;41275;51.912;4.388;2023-07-13T13:28:21;101723.56;;;31.78;28.43
21547;BME280;41275;51.912;4.388;2023-07-13T13:33:44;101730.34;;;32.57;27.54
21547;BME280;41275;51.912;4.388;2023-07-13T13:39:34;101737.19;;;33.33;26.12
21547;BME280;41275;51.912;4.388;2023-07-13T13:44:55;101734.38;;;32.31;27.43
21547;BME280;41275;51.912;4.388;2023-07-13T13:50:21;101741.81;;;32.94;26.90
21547;BME280;41275;51.912;4.388;2023-07-13T13:55:45;101738.97;;;33.61;26.00
21547;BME280;41275;51.912;4.388;2023-07-13T14:01:13;101735.25;;;33.34;27.05
21547;BME280;41275;51.912;4.388;2023-07-13T14:06:37;101733.88;;;33.43;26.82
21547;BME280;41275;51.912;4.388;2023-07-13T14:11:59;101737.16;;;33.14;27.71
21547;BME280;41275;51.912;4.388;2023-07-13T14:17:25;101735.78;;;32.88;28.12
21547;BME280;41275;51.912;4.388;2023-07-13T14:22:48;101743.97;;;33.39;27.82
21547;BME280;41275;51.912;4.388;2023-07-13T14:28:25;101735.50;;;34.06;27.41
21547;BME280;41275;51.912;4.388;2023-07-13T14:33:47;101732.31;;;34.73;26.44
21547;BME280;41275;51.912;4.388;2023-07-13T14:39:14;101736.81;;;34.12;27.38
21547;BME280;41275;51.912;4.388;2023-07-13T14:44:37;101743.41;;;34.54;26.97
21547;BME280;41275;51.912;4.388;2023-07-13T14:49:59;101732.13;;;35.12;26.21
21547;BME280;41275;51.912;4.388;2023-07-13T14:55:21;101743.13;;;33.74;27.04
21547;BME280;41275;51.912;4.388;2023-07-13T15:00:42;101740.22;;;33.86;26.58
21547;BME280;41275;51.912;4.388;2023-07-13T15:06:04;101728.31;;;34.21;26.91
21547;BME280;41275;51.912;4.388;2023-07-13T15:11:25;101724.13;;;34.27;26.51
21547;BME280;41275;51.912;4.388;2023-07-13T15:16:49;101728.00;;;34.03;27.09
21547;BME280;41275;51.912;4.388;2023-07-13T15:22:11;101729.84;;;34.64;26.45
21547;BME280;41275;51.912;4.388;2023-07-13T15:27:32;101722.03;;;34.20;26.39
21547;BME280;41275;51.912;4.388;2023-07-13T15:32:55;101725.91;;;33.96;26.71
21547;BME280;41275;51.912;4.388;2023-07-13T15:38:20;101725.16;;;33.77;27.11
21547;BME280;41275;51.912;4.388;2023-07-13T15:43:42;101727.28;;;34.06;27.25
21547;BME280;41275;51.912;4.388;2023-07-13T15:49:08;101726.47;;;35.99;25.71
21547;BME280;41275;51.912;4.388;2023-07-13T15:54:30;101732.09;;;35.76;25.36
21547;BME280;41275;51.912;4.388;2023-07-13T15:59:51;101730.56;;;34.61;26.06
21547;BME280;41275;51.912;4.388;2023-07-13T16:05:12;101745.81;;;33.70;27.09
21547;BME280;41275;51.912;4.388;2023-07-13T16:10:35;101740.50;;;34.69;26.43
21547;BME280;41275;51.912;4.388;2023-07-13T16:15:59;101733.50;;;33.26;27.84
21547;BME280;41275;51.912;4.388;2023-07-13T16:21:29;101735.09;;;33.27;27.89
21547;BME280;41275;51.912;4.388;2023-07-13T16:26:51;101743.56;;;33.37;27.79
21547;BME280;41275;51.912;4.388;2023-07-13T16:32:14;101741.31;;;33.43;28.18
21547;BME280;41275;51.912;4.388;2023-07-13T16:37:35;101739.59;;;33.74;27.98
21547;BME280;41275;51.912;4.388;2023-07-13T16:42:58;101724.41;;;33.99;27.30
21547;BME280;41275;51.912;4.388;2023-07-13T16:48:22;101739.53;;;33.51;27.51
21547;BME280;41275;51.912;4.388;2023-07-13T16:53:45;101728.84;;;34.07;27.21
21547;BME280;41275;51.912;4.388;2023-07-13T16:59:14;101723.22;;;34.19;26.87
21547;BME280;41275;51.912;4.388;2023-07-13T17:04:36;101726.47;;;34.75;25.89
21547;BME280;41275;51.912;4.388;2023-07-13T17:09:58;101719.91;;;34.83;25.89
21547;BME280;41275;51.912;4.388;2023-07-13T17:15:22;101720.22;;;34.28;25.67
21547;BME280;41275;51.912;4.388;2023-07-13T17:20:45;101721.66;;;33.80;26.83
21547;BME280;41275;51.912;4.388;2023-07-13T17:26:08;101721.97;;;33.01;27.84
21547;BME280;41275;51.912;4.388;2023-07-13T17:31:30;101728.00;;;32.90;28.04
21547;BME280;41275;51.912;4.388;2023-07-13T17:36:51;101722.28;;;32.32;28.58
21547;BME280;41275;51.912;4.388;2023-07-13T17:42:13;101732.56;;;32.51;28.62
21547;BME280;41275;51.912;4.388;2023-07-13T17:47:34;101713.97;;;32.76;27.56
21547;BME280;41275;51.912;4.388;2023-07-13T17:52:56;101727.78;;;31.88;28.40
21547;BME280;41275;51.912;4.388;2023-07-13T17:58:17;101729.44;;;31.37;29.20
21547;BME280;41275;51.912;4.388;2023-07-13T18:03:43;101737.69;;;30.88;30.51
21547;BME280;41275;51.912;4.388;2023-07-13T18:09:17;101726.28;;;30.61;31.03
21547;BME280;41275;51.912;4.388;2023-07-13T18:14:39;101731.28;;;30.14;31.18
21547;BME280;41275;51.912;4.388;2023-07-13T18:20:00;101734.19;;;29.63;31.59
21547;BME280;41275;51.912;4.388;2023-07-13T18:25:28;101731.59;;;29.67;31.29
21547;BME280;41275;51.912;4.388;2023-07-13T18:30:55;101741.34;;;29.47;31.71
21547;BME280;41275;51.912;4.388;2023-07-13T18:36:17;101734.75;;;29.27;32.14
21547;BME280;41275;51.912;4.388;2023-07-13T18:41:39;101744.34;;;28.74;32.86
21547;BME280;41275;51.912;4.388;2023-07-13T18:47:00;101742.41;;;28.74;33.23
21547;BME280;41275;51.912;4.388;2023-07-13T18:52:22;101741.16;;;27.81;34.62
21547;BME280;41275;51.912;4.388;2023-07-13T18:57:44;101746.22;;;27.22;35.75
21547;BME280;41275;51.912;4.388;2023-07-13T19:03:15;101739.06;;;26.95;36.19
21547;BME280;41275;51.912;4.388;2023-07-13T19:08:38;101749.06;;;26.68;36.81
21547;BME280;41275;51.912;4.388;2023-07-13T19:14:01;101747.78;;;26.66;36.80
21547;BME280;41275;51.912;4.388;2023-07-13T19:19:23;101735.56;;;26.55;36.66
21547;BME280;41275;51.912;4.388;2023-07-13T19:24:44;101743.13;;;26.66;36.31
21547;BME280;41275;51.912;4.388;2023-07-13T19:30:10;101737.63;;;26.49;36.32
21547;BME280;41275;51.912;4.388;2023-07-13T19:35:32;101748.34;;;26.32;36.50
21547;BME280;41275;51.912;4.388;2023-07-13T19:40:54;101747.28;;;26.10;36.93
21547;BME280;41275;51.912;4.388;2023-07-13T19:46:43;101732.53;;;26.03;36.76
21547;BME280;41275;51.912;4.388;2023-07-13T19:52:11;101745.34;;;25.88;37.08
21547;BME280;41275;51.912;4.388;2023-07-13T19:57:32;101757.25;;;25.79;37.20
21547;BME280;41275;51.912;4.388;2023-07-13T20:02:54;101756.66;;;25.68;37.22
21547;BME280;41275;51.912;4.388;2023-07-13T20:08:19;101752.69;;;25.52;37.15
21547;BME280;41275;51.912;4.388;2023-07-13T20:13:41;101749.06;;;25.42;37.53
21547;BME280;41275;51.912;4.388;2023-07-13T20:19:02;101759.41;;;25.27;38.07
21547;BME280;41275;51.912;4.388;2023-07-13T20:24:23;101752.31;;;25.17;38.91
21547;BME280;41275;51.912;4.388;2023-07-13T20:29:45;101753.22;;;25.12;39.05
21547;BME280;41275;51.912;4.388;2023-07-13T20:35:26;101755.19;;;25.07;39.47
21547;BME280;41275;51.912;4.388;2023-07-13T20:40:49;101760.41;;;25.03;40.00
21547;BME280;41275;51.912;4.388;2023-07-13T20:46:14;101760.03;;;24.96;40.08
21547;BME280;41275;51.912;4.388;2023-07-13T20:51:38;101761.44;;;24.93;40.30
21547;BME280;41275;51.912;4.388;2023-07-13T20:56:59;101761.44;;;24.93;40.69
21547;BME280;41275;51.912;4.388;2023-07-13T21:07:43;101769.25;;;24.95;41.16
21547;BME280;41275;51.912;4.388;2023-07-13T21:13:05;101765.94;;;24.98;41.85
21547;BME280;41275;51.912;4.388;2023-07-13T21:18:28;101766.94;;;25.02;41.74
21547;BME280;41275;51.912;4.388;2023-07-13T21:23:50;101761.03;;;25.00;42.03
21547;BME280;41275;51.912;4.388;2023-07-13T21:29:12;101762.81;;;24.91;42.53
21547;BME280;41275;51.912;4.388;2023-07-13T21:34:33;101756.50;;;24.95;42.63
21547;BME280;41275;51.912;4.388;2023-07-13T21:39:55;101750.38;;;24.90;42.67
21547;BME280;41275;51.912;4.388;2023-07-13T21:45:19;101757.03;;;24.84;42.87
21547;BME280;41275;51.912;4.388;2023-07-13T21:50:43;101748.50;;;24.77;42.95
21547;BME280;41275;51.912;4.388;2023-07-13T21:56:09;101747.59;;;24.81;42.88
21547;BME280;41275;51.912;4.388;2023-07-13T22:01:31;101765.16;;;24.84;42.98
21547;BME280;41275;51.912;4.388;2023-07-13T22:06:55;101751.88;;;24.82;43.07
21547;BME280;41275;51.912;4.388;2023-07-13T22:12:17;101762.63;;;24.87;43.08
21547;BME280;41275;51.912;4.388;2023-07-13T22:17:46;101764.03;;;24.85;43.09
21547;BME280;41275;51.912;4.388;2023-07-13T22:23:20;101753.50;;;24.83;43.08
21547;BME280;41275;51.912;4.388;2023-07-13T22:28:42;101752.38;;;24.70;43.37
21547;BME280;41275;51.912;4.388;2023-07-13T22:34:05;101756.19;;;24.69;44.03
21547;BME280;41275;51.912;4.388;2023-07-13T22:39:28;101748.88;;;24.70;43.82
21547;BME280;41275;51.912;4.388;2023-07-13T22:44:51;101759.38;;;24.71;43.89
21547;BME280;41275;51.912;4.388;2023-07-13T22:50:15;101761.31;;;24.71;44.00
21547;BME280;41275;51.912;4.388;2023-07-13T22:55:36;101754.19;;;24.75;44.01
21547;BME280;41275;51.912;4.388;2023-07-13T23:00:59;101760.72;;;24.74;44.02
21547;BME280;41275;51.912;4.388;2023-07-13T23:06:26;101757.59;;;24.67;43.89
21547;BME280;41275;51.912;4.388;2023-07-13T23:11:48;101738.22;;;24.60;43.89
21547;BME280;41275;51.912;4.388;2023-07-13T23:17:10;101736.84;;;24.62;43.81
21547;BME280;41275;51.912;4.388;2023-07-13T23:22:32;101736.94;;;24.57;43.62
21547;BME280;41275;51.912;4.388;2023-07-13T23:27:54;101748.84;;;24.56;43.51
21547;BME280;41275;51.912;4.388;2023-07-13T23:33:25;101737.63;;;24.49;43.17
21547;BME280;41275;51.912;4.388;2023-07-13T23:38:47;101738.22;;;24.46;42.94
21547;BME280;41275;51.912;4.388;2023-07-13T23:44:09;101734.72;;;24.45;42.59
21547;BME280;41275;51.912;4.388;2023-07-13T23:49:31;101729.88;;;24.42;42.87
21547;BME280;41275;51.912;4.388;2023-07-13T23:54:53;101726.66;;;24.40;43.03
